Bouzas — EAPC — position and weather

sailwx.info

Track history (hours):
 
Tides and Currents Weather Stations Pressure Air Temp Water Temp Dewpoint Dewpoint Depression Visibility Wind Speed Wind Dir Waves Ship Positions

Bouzas

Last reported at 2014-Nov-26 16:15 UTC. Time now 2014-Nov-27 06:45 UTC.
Position N 35°60' W 005°12'.

Length 142 m; draft 5.3 m.

Type: Cargo ship. MMSI: 224029000.

Date/timePositionNaut miles runAvg speedWind from/ knotsBaromVisibWave heightAir tempDewpointWater temp
2014-Nov-26 16:15N 35°60' W 005°12'1216.5
2014-Nov-26 15:33N 35°58' W 005°26'  
2014-Nov-22 18:33N 35°60' W 005°26'25617.9
2014-Nov-22 04:16N 37°38' W 000°30'1419.6
2014-Nov-22 03:33N 37°49' W 000°21'13621.3
2014-Nov-21 21:10N 39°46' E 001°09'1 2.0
2014-Nov-21 20:33N 39°48' E 001°09'2019.6
2014-Nov-21 19:33N 40°05' E 001°21'2019.8
2014-Nov-21 18:33N 40°22' E 001°34'1919.5
2014-Nov-21 17:33N 40°39' E 001°47'2019.6
2014-Nov-21 16:33N 40°56' E 002°00'2618.8
2014-Nov-21 15:11N 41°19' E 002°14'2 0.1
2014-Nov-20 19:27N 41°17' E 002°14'1617.9
2014-Nov-20 18:33N 41°03' E 002°04'1717.5
2014-Nov-20 17:33N 40°47' E 001°53'1717.5
2014-Nov-20 16:34N 40°32' E 001°43'1717.1
2014-Nov-20 15:34N 40°17' E 001°32'1717.3
2014-Nov-20 14:33N 40°01' E 001°22'1717.3
2014-Nov-20 13:33N 39°46' E 001°11'15717.1
2014-Nov-20 04:20N 37°31' W 000°33'1616.6
2014-Nov-20 03:23N 37°21' W 000°48'23416.9
2014-Nov-19 13:33N 35°59' W 005°21'  
Track history (hours):
 
Tides and Currents Weather Stations Pressure Air Temp Water Temp Dewpoint Dewpoint Depression Visibility Wind Speed Wind Dir Waves Ship Positions

Bouzas

Last reported at 2014-Nov-26 16:15 UTC. Time now 2014-Nov-27 06:45 UTC.
Position N 35°60' W 005°12'.

Length 142 m; draft 5.3 m.

Type: Cargo ship. MMSI: 224029000.

Date/timePositionNaut miles runAvg speedWind from/ knotsBaromVisibWave heightAir tempDewpointWater temp
2014-Nov-26 16:15N 35°60' W 005°12'1216.5
2014-Nov-26 15:33N 35°58' W 005°26'  
2014-Nov-22 18:33N 35°60' W 005°26'25617.9
2014-Nov-22 04:16N 37°38' W 000°30'1419.6
2014-Nov-22 03:33N 37°49' W 000°21'13621.3
2014-Nov-21 21:10N 39°46' E 001°09'1 2.0
2014-Nov-21 20:33N 39°48' E 001°09'2019.6
2014-Nov-21 19:33N 40°05' E 001°21'2019.8
2014-Nov-21 18:33N 40°22' E 001°34'1919.5
2014-Nov-21 17:33N 40°39' E 001°47'2019.6
2014-Nov-21 16:33N 40°56' E 002°00'2618.8
2014-Nov-21 15:11N 41°19' E 002°14'2 0.1
2014-Nov-20 19:27N 41°17' E 002°14'1617.9
2014-Nov-20 18:33N 41°03' E 002°04'1717.5
2014-Nov-20 17:33N 40°47' E 001°53'1717.5
2014-Nov-20 16:34N 40°32' E 001°43'1717.1
2014-Nov-20 15:34N 40°17' E 001°32'1717.3
2014-Nov-20 14:33N 40°01' E 001°22'1717.3
2014-Nov-20 13:33N 39°46' E 001°11'15717.1
2014-Nov-20 04:20N 37°31' W 000°33'1616.6
2014-Nov-20 03:23N 37°21' W 000°48'23416.9
2014-Nov-19 13:33N 35°59' W 005°21'  

Dump ship's entire track history